sensor_id;sensor_type;location;lat;lon;timestamp;temperature;humidity
39503;DHT22;26970;49.900;10.774;2022-09-13T00:00:50;13.10;99.90
39503;DHT22;26970;49.900;10.774;2022-09-13T00:03:16;13.00;99.90
39503;DHT22;26970;49.900;10.774;2022-09-13T00:05:42;13.00;99.90
39503;DHT22;26970;49.900;10.774;2022-09-13T00:08:08;13.00;99.90
39503;DHT22;26970;49.900;10.774;2022-09-13T00:10:36;13.00;99.90
39503;DHT22;26970;49.900;10.774;2022-09-13T00:13:02;13.00;99.90
39503;DHT22;26970;49.900;10.774;2022-09-13T00:15:29;12.90;99.90
39503;DHT22;26970;49.900;10.774;2022-09-13T00:17:54;12.90;99.90
39503;DHT22;26970;49.900;10.774;2022-09-13T00:20:20;12.60;99.90
39503;DHT22;26970;49.900;10.774;2022-09-13T00:22:46;12.60;99.90
39503;DHT22;26970;49.900;10.774;2022-09-13T00:25:11;12.60;99.90
39503;DHT22;26970;49.900;10.774;2022-09-13T00:27:37;12.60;99.90
39503;DHT22;26970;49.900;10.774;2022-09-13T00:30:04;12.60;99.90
39503;DHT22;26970;49.900;10.774;2022-09-13T00:32:30;12.60;99.90
39503;DHT22;26970;49.900;10.774;2022-09-13T00:34:56;12.60;99.90
39503;DHT22;26970;49.900;10.774;2022-09-13T00:37:22;12.60;99.90
39503;DHT22;26970;49.900;10.774;2022-09-13T00:39:48;12.50;99.90
39503;DHT22;26970;49.900;10.774;2022-09-13T00:42:14;12.50;99.90
39503;DHT22;26970;49.900;10.774;2022-09-13T00:47:30;12.40;99.90
39503;DHT22;26970;49.900;10.774;2022-09-13T00:50:05;12.40;99.90
39503;DHT22;26970;49.900;10.774;2022-09-13T00:52:33;12.40;99.90
39503;DHT22;26970;49.900;10.774;2022-09-13T00:55:07;12.50;99.90
39503;DHT22;26970;49.900;10.774;2022-09-13T00:57:36;12.50;99.90
39503;DHT22;26970;49.900;10.774;2022-09-13T01:00:08;12.60;99.90
39503;DHT22;26970;49.900;10.774;2022-09-13T01:02:37;12.50;99.90
39503;DHT22;26970;49.900;10.774;2022-09-13T01:05:03;12.50;99.90
39503;DHT22;26970;49.900;10.774;2022-09-13T01:07:29;12.50;99.90
39503;DHT22;26970;49.900;10.774;2022-09-13T01:09:55;12.50;99.90
39503;DHT22;26970;49.900;10.774;2022-09-13T01:12:28;12.60;99.90
39503;DHT22;26970;49.900;10.774;2022-09-13T01:14:56;12.60;99.90
39503;DHT22;26970;49.900;10.774;2022-09-13T01:17:25;12.60;99.90
39503;DHT22;26970;49.900;10.774;2022-09-13T01:19:51;12.60;99.90
39503;DHT22;26970;49.900;10.774;2022-09-13T01:33:55;12.70;99.90
39503;DHT22;26970;49.900;10.774;2022-09-13T01:40:04;12.80;99.90
39503;DHT22;26970;49.900;10.774;2022-09-13T01:42:44;12.80;99.90
39503;DHT22;26970;49.900;10.774;2022-09-13T01:45:46;12.80;99.90
39503;DHT22;26970;49.900;10.774;2022-09-13T01:48:37;12.80;99.90
39503;DHT22;26970;49.900;10.774;2022-09-13T01:51:27;12.80;99.90
39503;DHT22;26970;49.900;10.774;2022-09-13T01:57:40;12.80;99.90
39503;DHT22;26970;49.900;10.774;2022-09-13T02:00:11;12.80;99.90
39503;DHT22;26970;49.900;10.774;2022-09-13T02:08:01;12.80;99.90
39503;DHT22;26970;49.900;10.774;2022-09-13T02:10:44;12.80;99.90
39503;DHT22;26970;49.900;10.774;2022-09-13T02:13:15;12.80;99.90
39503;DHT22;26970;49.900;10.774;2022-09-13T02:15:47;12.90;99.90
39503;DHT22;26970;49.900;10.774;2022-09-13T02:18:21;12.80;99.90
39503;DHT22;26970;49.900;10.774;2022-09-13T02:20:50;12.80;99.90
39503;DHT22;26970;49.900;10.774;2022-09-13T02:23:36;12.80;99.90
39503;DHT22;26970;49.900;10.774;2022-09-13T02:26:04;12.80;99.90
39503;DHT22;26970;49.900;10.774;2022-09-13T02:28:36;12.80;99.90
39503;DHT22;26970;49.900;10.774;2022-09-13T02:31:07;12.80;99.90
39503;DHT22;26970;49.900;10.774;2022-09-13T02:33:38;12.80;99.90
39503;DHT22;26970;49.900;10.774;2022-09-13T02:36:11;12.80;99.90
39503;DHT22;26970;49.900;10.774;2022-09-13T02:38:51;12.80;99.90
39503;DHT22;26970;49.900;10.774;2022-09-13T02:41:38;12.80;99.90
39503;DHT22;26970;49.900;10.774;2022-09-13T02:44:34;12.90;99.90
39503;DHT22;26970;49.900;10.774;2022-09-13T02:47:14;12.80;99.90
39503;DHT22;26970;49.900;10.774;2022-09-13T02:55:58;12.80;99.90
39503;DHT22;26970;49.900;10.774;2022-09-13T02:58:30;12.80;99.90
39503;DHT22;26970;49.900;10.774;2022-09-13T03:00:59;12.70;99.90
39503;DHT22;26970;49.900;10.774;2022-09-13T03:03:25;12.70;99.90
39503;DHT22;26970;49.900;10.774;2022-09-13T03:05:52;12.70;99.90
39503;DHT22;26970;49.900;10.774;2022-09-13T03:08:17;12.60;99.90
39503;DHT22;26970;49.900;10.774;2022-09-13T03:11:07;12.60;99.90
39503;DHT22;26970;49.900;10.774;2022-09-13T03:14:04;12.60;99.90
39503;DHT22;26970;49.900;10.774;2022-09-13T03:27:30;12.00;99.90
39503;DHT22;26970;49.900;10.774;2022-09-13T03:30:06;11.80;99.90
39503;DHT22;26970;49.900;10.774;2022-09-13T03:35:47;11.70;99.90
39503;DHT22;26970;49.900;10.774;2022-09-13T03:38:18;11.80;99.90
39503;DHT22;26970;49.900;10.774;2022-09-13T03:41:08;11.80;99.90
39503;DHT22;26970;49.900;10.774;2022-09-13T03:43:40;11.80;99.90
39503;DHT22;26970;49.900;10.774;2022-09-13T03:46:14;11.60;99.90
39503;DHT22;26970;49.900;10.774;2022-09-13T03:48:42;11.60;99.90
39503;DHT22;26970;49.900;10.774;2022-09-13T03:51:08;11.60;99.90
39503;DHT22;26970;49.900;10.774;2022-09-13T03:53:38;11.60;99.90
39503;DHT22;26970;49.900;10.774;2022-09-13T03:56:17;11.40;99.90
39503;DHT22;26970;49.900;10.774;2022-09-13T03:58:43;11.30;99.90
39503;DHT22;26970;49.900;10.774;2022-09-13T04:01:08;11.30;99.90
39503;DHT22;26970;49.900;10.774;2022-09-13T04:03:37;11.20;99.90
39503;DHT22;26970;49.900;10.774;2022-09-13T04:06:03;11.30;99.90
39503;DHT22;26970;49.900;10.774;2022-09-13T04:08:30;11.30;99.90
39503;DHT22;26970;49.900;10.774;2022-09-13T04:10:55;11.30;99.90
39503;DHT22;26970;49.900;10.774;2022-09-13T04:13:21;11.40;99.90
39503;DHT22;26970;49.900;10.774;2022-09-13T04:15:47;11.50;99.90
39503;DHT22;26970;49.900;10.774;2022-09-13T04:18:14;11.50;99.90
39503;DHT22;26970;49.900;10.774;2022-09-13T04:20:40;11.50;99.90
39503;DHT22;26970;49.900;10.774;2022-09-13T04:23:05;11.50;99.90
39503;DHT22;26970;49.900;10.774;2022-09-13T04:25:31;11.50;99.90
39503;DHT22;26970;49.900;10.774;2022-09-13T04:27:57;11.50;99.90
39503;DHT22;26970;49.900;10.774;2022-09-13T04:30:25;11.50;99.90
39503;DHT22;26970;49.900;10.774;2022-09-13T04:32:50;11.50;99.90
39503;DHT22;26970;49.900;10.774;2022-09-13T04:35:16;11.60;99.90
39503;DHT22;26970;49.900;10.774;2022-09-13T04:37:44;11.60;99.90
39503;DHT22;26970;49.900;10.774;2022-09-13T04:40:10;11.60;99.90
39503;DHT22;26970;49.900;10.774;2022-09-13T04:42:36;11.60;99.90
39503;DHT22;26970;49.900;10.774;2022-09-13T04:45:02;11.70;99.90
39503;DHT22;26970;49.900;10.774;2022-09-13T04:47:27;11.70;99.90
39503;DHT22;26970;49.900;10.774;2022-09-13T04:49:53;11.70;99.90
39503;DHT22;26970;49.900;10.774;2022-09-13T04:52:19;11.70;99.90
39503;DHT22;26970;49.900;10.774;2022-09-13T04:54:44;11.60;99.90
39503;DHT22;26970;49.900;10.774;2022-09-13T04:57:13;11.60;99.90
39503;DHT22;26970;49.900;10.774;2022-09-13T04:59:39;11.70;99.90
39503;DHT22;26970;49.900;10.774;2022-09-13T05:02:04;11.50;99.90
39503;DHT22;26970;49.900;10.774;2022-09-13T05:04:30;11.50;99.90
39503;DHT22;26970;49.900;10.774;2022-09-13T05:06:55;11.50;99.90
39503;DHT22;26970;49.900;10.774;2022-09-13T05:09:23;11.50;99.90
39503;DHT22;26970;49.900;10.774;2022-09-13T05:11:49;11.50;99.90
39503;DHT22;26970;49.900;10.774;2022-09-13T05:14:14;11.50;99.90
39503;DHT22;26970;49.900;10.774;2022-09-13T05:16:40;11.40;99.90
39503;DHT22;26970;49.900;10.774;2022-09-13T05:19:06;11.50;99.90
39503;DHT22;26970;49.900;10.774;2022-09-13T05:21:31;11.60;99.90
39503;DHT22;26970;49.900;10.774;2022-09-13T05:23:57;11.70;99.90
39503;DHT22;26970;49.900;10.774;2022-09-13T05:26:25;11.70;99.90
39503;DHT22;26970;49.900;10.774;2022-09-13T05:28:51;11.70;99.90
39503;DHT22;26970;49.900;10.774;2022-09-13T05:31:19;11.70;99.90
39503;DHT22;26970;49.900;10.774;2022-09-13T05:33:47;11.80;99.90
39503;DHT22;26970;49.900;10.774;2022-09-13T05:36:13;11.90;99.90
39503;DHT22;26970;49.900;10.774;2022-09-13T05:38:38;11.90;99.90
39503;DHT22;26970;49.900;10.774;2022-09-13T05:41:04;12.00;99.90
39503;DHT22;26970;49.900;10.774;2022-09-13T05:43:33;12.10;99.90
39503;DHT22;26970;49.900;10.774;2022-09-13T05:46:00;12.10;99.90
39503;DHT22;26970;49.900;10.774;2022-09-13T05:48:27;12.20;99.90
39503;DHT22;26970;49.900;10.774;2022-09-13T05:50:52;12.30;99.90
39503;DHT22;26970;49.900;10.774;2022-09-13T05:53:18;12.40;99.90
39503;DHT22;26970;49.900;10.774;2022-09-13T05:55:43;12.50;99.90
39503;DHT22;26970;49.900;10.774;2022-09-13T05:58:09;12.60;99.90
39503;DHT22;26970;49.900;10.774;2022-09-13T06:00:34;12.60;99.90
39503;DHT22;26970;49.900;10.774;2022-09-13T06:03:00;12.70;99.90
39503;DHT22;26970;49.900;10.774;2022-09-13T06:05:25;12.80;99.90
39503;DHT22;26970;49.900;10.774;2022-09-13T06:07:51;12.80;99.90
39503;DHT22;26970;49.900;10.774;2022-09-13T06:10:17;12.90;99.90
39503;DHT22;26970;49.900;10.774;2022-09-13T06:12:42;12.90;99.90
39503;DHT22;26970;49.900;10.774;2022-09-13T06:15:08;12.90;99.90
39503;DHT22;26970;49.900;10.774;2022-09-13T06:17:34;12.90;99.90
39503;DHT22;26970;49.900;10.774;2022-09-13T06:19:59;12.90;99.90
39503;DHT22;26970;49.900;10.774;2022-09-13T06:22:25;13.00;99.90
39503;DHT22;26970;49.900;10.774;2022-09-13T06:24:57;13.00;99.90
39503;DHT22;26970;49.900;10.774;2022-09-13T06:27:23;13.10;99.90
39503;DHT22;26970;49.900;10.774;2022-09-13T06:29:48;13.10;99.90
39503;DHT22;26970;49.900;10.774;2022-09-13T06:32:14;13.20;99.90
39503;DHT22;26970;49.900;10.774;2022-09-13T06:34:39;13.20;99.90
39503;DHT22;26970;49.900;10.774;2022-09-13T06:37:05;13.30;99.90
39503;DHT22;26970;49.900;10.774;2022-09-13T06:39:30;13.40;99.90
39503;DHT22;26970;49.900;10.774;2022-09-13T06:41:56;13.40;99.90
39503;DHT22;26970;49.900;10.774;2022-09-13T06:44:22;13.50;99.90
39503;DHT22;26970;49.900;10.774;2022-09-13T06:46:47;13.60;99.90
39503;DHT22;26970;49.900;10.774;2022-09-13T06:49:13;13.60;99.90
39503;DHT22;26970;49.900;10.774;2022-09-13T06:51:38;13.80;99.90
39503;DHT22;26970;49.900;10.774;2022-09-13T06:54:04;13.90;99.90
39503;DHT22;26970;49.900;10.774;2022-09-13T06:56:32;14.00;99.90
39503;DHT22;26970;49.900;10.774;2022-09-13T06:59:01;14.10;99.90
39503;DHT22;26970;49.900;10.774;2022-09-13T07:01:34;14.20;99.90
39503;DHT22;26970;49.900;10.774;2022-09-13T07:04:03;14.30;99.90
39503;DHT22;26970;49.900;10.774;2022-09-13T07:06:34;14.40;99.90
39503;DHT22;26970;49.900;10.774;2022-09-13T07:09:02;14.50;99.90
39503;DHT22;26970;49.900;10.774;2022-09-13T07:11:32;14.60;99.90
39503;DHT22;26970;49.900;10.774;2022-09-13T07:13:58;14.40;99.90
39503;DHT22;26970;49.900;10.774;2022-09-13T07:16:28;14.60;99.90
39503;DHT22;26970;49.900;10.774;2022-09-13T07:18:58;14.60;99.90
39503;DHT22;26970;49.900;10.774;2022-09-13T07:21:25;14.60;99.90
39503;DHT22;26970;49.900;10.774;2022-09-13T07:23:52;14.60;99.90
39503;DHT22;26970;49.900;10.774;2022-09-13T07:26:19;14.70;99.90
39503;DHT22;26970;49.900;10.774;2022-09-13T07:28:46;14.70;99.90
39503;DHT22;26970;49.900;10.774;2022-09-13T07:31:18;14.70;99.90
39503;DHT22;26970;49.900;10.774;2022-09-13T07:33:45;14.90;99.90
39503;DHT22;26970;49.900;10.774;2022-09-13T07:36:11;14.80;99.90
39503;DHT22;26970;49.900;10.774;2022-09-13T07:38:40;14.90;99.90
39503;DHT22;26970;49.900;10.774;2022-09-13T07:41:12;14.90;99.90
39503;DHT22;26970;49.900;10.774;2022-09-13T07:43:38;15.00;99.90
39503;DHT22;26970;49.900;10.774;2022-09-13T07:46:09;15.00;99.90
39503;DHT22;26970;49.900;10.774;2022-09-13T07:48:37;15.00;99.90
39503;DHT22;26970;49.900;10.774;2022-09-13T07:51:12;15.10;99.90
39503;DHT22;26970;49.900;10.774;2022-09-13T07:53:39;15.10;99.90
39503;DHT22;26970;49.900;10.774;2022-09-13T07:58:39;15.30;99.90
39503;DHT22;26970;49.900;10.774;2022-09-13T08:03:34;15.50;99.90
39503;DHT22;26970;49.900;10.774;2022-09-13T08:06:01;15.70;99.90
39503;DHT22;26970;49.900;10.774;2022-09-13T08:08:27;15.80;99.90
39503;DHT22;26970;49.900;10.774;2022-09-13T08:10:56;15.90;99.90
39503;DHT22;26970;49.900;10.774;2022-09-13T08:13:22;15.90;99.90
39503;DHT22;26970;49.900;10.774;2022-09-13T08:15:47;16.20;99.90
39503;DHT22;26970;49.900;10.774;2022-09-13T08:18:14;16.40;99.90
39503;DHT22;26970;49.900;10.774;2022-09-13T08:20:40;16.60;99.90
39503;DHT22;26970;49.900;10.774;2022-09-13T08:23:06;16.70;99.90
39503;DHT22;26970;49.900;10.774;2022-09-13T08:25:33;16.70;99.90
39503;DHT22;26970;49.900;10.774;2022-09-13T08:28:00;16.70;99.90
39503;DHT22;26970;49.900;10.774;2022-09-13T08:30:26;16.60;99.90
39503;DHT22;26970;49.900;10.774;2022-09-13T08:32:58;16.50;99.90
39503;DHT22;26970;49.900;10.774;2022-09-13T08:35:30;16.70;99.90
39503;DHT22;26970;49.900;10.774;2022-09-13T08:37:56;16.60;99.90
39503;DHT22;26970;49.900;10.774;2022-09-13T08:40:23;16.60;99.90
39503;DHT22;26970;49.900;10.774;2022-09-13T08:42:56;16.60;99.90
39503;DHT22;26970;49.900;10.774;2022-09-13T08:45:28;16.60;99.90
39503;DHT22;26970;49.900;10.774;2022-09-13T08:48:02;16.60;99.90
39503;DHT22;26970;49.900;10.774;2022-09-13T08:50:33;16.70;99.90
39503;DHT22;26970;49.900;10.774;2022-09-13T08:53:23;16.80;99.90
39503;DHT22;26970;49.900;10.774;2022-09-13T08:56:05;16.90;99.90
39503;DHT22;26970;49.900;10.774;2022-09-13T08:58:53;16.90;99.90
39503;DHT22;26970;49.900;10.774;2022-09-13T09:04:12;17.10;99.90
39503;DHT22;26970;49.900;10.774;2022-09-13T09:06:40;17.20;99.90
39503;DHT22;26970;49.900;10.774;2022-09-13T09:09:19;17.30;99.90
39503;DHT22;26970;49.900;10.774;2022-09-13T09:12:00;17.40;99.90
39503;DHT22;26970;49.900;10.774;2022-09-13T09:14:34;17.50;99.90
39503;DHT22;26970;49.900;10.774;2022-09-13T09:17:12;17.50;99.90
39503;DHT22;26970;49.900;10.774;2022-09-13T09:20:03;17.60;99.90
39503;DHT22;26970;49.900;10.774;2022-09-13T09:22:33;17.70;99.90
39503;DHT22;26970;49.900;10.774;2022-09-13T09:25:00;17.90;99.90
39503;DHT22;26970;49.900;10.774;2022-09-13T09:27:28;18.00;99.90
39503;DHT22;26970;49.900;10.774;2022-09-13T09:29:55;18.10;99.90
39503;DHT22;26970;49.900;10.774;2022-09-13T09:35:28;18.50;99.90
39503;DHT22;26970;49.900;10.774;2022-09-13T09:40:42;18.30;99.90
39503;DHT22;26970;49.900;10.774;2022-09-13T09:43:23;18.30;99.90
39503;DHT22;26970;49.900;10.774;2022-09-13T09:45:52;18.30;99.90
39503;DHT22;26970;49.900;10.774;2022-09-13T09:48:23;18.40;99.90
39503;DHT22;26970;49.900;10.774;2022-09-13T09:50:53;18.50;99.90
39503;DHT22;26970;49.900;10.774;2022-09-13T09:53:32;18.60;99.90
39503;DHT22;26970;49.900;10.774;2022-09-13T09:58:45;18.80;99.90
39503;DHT22;26970;49.900;10.774;2022-09-13T10:01:29;18.90;99.90
39503;DHT22;26970;49.900;10.774;2022-09-13T10:06:42;19.10;99.90
39503;DHT22;26970;49.900;10.774;2022-09-13T10:12:04;19.50;99.90
39503;DHT22;26970;49.900;10.774;2022-09-13T10:19:52;20.10;99.90
39503;DHT22;26970;49.900;10.774;2022-09-13T10:22:19;20.10;99.90
39503;DHT22;26970;49.900;10.774;2022-09-13T10:24:45;20.20;99.90
39503;DHT22;26970;49.900;10.774;2022-09-13T10:29:56;20.80;99.90
39503;DHT22;26970;49.900;10.774;2022-09-13T10:32:25;20.80;99.90
39503;DHT22;26970;49.900;10.774;2022-09-13T10:34:51;20.70;99.90
39503;DHT22;26970;49.900;10.774;2022-09-13T10:37:27;20.70;99.90
39503;DHT22;26970;49.900;10.774;2022-09-13T10:40:05;20.60;99.90
39503;DHT22;26970;49.900;10.774;2022-09-13T10:42:33;20.50;99.90
39503;DHT22;26970;49.900;10.774;2022-09-13T10:45:02;20.40;99.90
39503;DHT22;26970;49.900;10.774;2022-09-13T10:52:54;20.30;99.90
39503;DHT22;26970;49.900;10.774;2022-09-13T10:55:37;20.30;99.90
39503;DHT22;26970;49.900;10.774;2022-09-13T11:00:52;20.50;99.90
39503;DHT22;26970;49.900;10.774;2022-09-13T11:11:33;20.80;99.90
39503;DHT22;26970;49.900;10.774;2022-09-13T11:14:37;20.80;99.90
39503;DHT22;26970;49.900;10.774;2022-09-13T11:20:23;20.90;99.90
39503;DHT22;26970;49.900;10.774;2022-09-13T11:31:24;21.00;99.90
39503;DHT22;26970;49.900;10.774;2022-09-13T11:39:31;21.30;99.90
39503;DHT22;26970;49.900;10.774;2022-09-13T11:47:31;21.40;99.90
39503;DHT22;26970;49.900;10.774;2022-09-13T11:53:03;21.50;99.90
39503;DHT22;26970;49.900;10.774;2022-09-13T11:55:40;21.50;99.90
39503;DHT22;26970;49.900;10.774;2022-09-13T11:58:13;21.50;99.90
39503;DHT22;26970;49.900;10.774;2022-09-13T12:00:56;21.30;99.90
39503;DHT22;26970;49.900;10.774;2022-09-13T12:03:41;21.40;99.90
39503;DHT22;26970;49.900;10.774;2022-09-13T12:06:56;21.20;99.90
39503;DHT22;26970;49.900;10.774;2022-09-13T12:09:18;21.20;99.90
39503;DHT22;26970;49.900;10.774;2022-09-13T12:14:25;21.00;99.90
39503;DHT22;26970;49.900;10.774;2022-09-13T12:16:57;20.90;99.90
39503;DHT22;26970;49.900;10.774;2022-09-13T12:19:50;20.90;99.90
39503;DHT22;26970;49.900;10.774;2022-09-13T12:22:21;20.90;99.90
39503;DHT22;26970;49.900;10.774;2022-09-13T12:24:51;21.00;99.90
39503;DHT22;26970;49.900;10.774;2022-09-13T12:27:38;20.90;99.90
39503;DHT22;26970;49.900;10.774;2022-09-13T12:32:37;20.80;99.90
39503;DHT22;26970;49.900;10.774;2022-09-13T12:35:07;20.80;99.90
39503;DHT22;26970;49.900;10.774;2022-09-13T12:46:05;21.00;99.90
39503;DHT22;26970;49.900;10.774;2022-09-13T12:49:01;21.00;99.90
39503;DHT22;26970;49.900;10.774;2022-09-13T12:54:39;21.00;99.90
39503;DHT22;26970;49.900;10.774;2022-09-13T13:00:15;21.10;99.90
39503;DHT22;26970;49.900;10.774;2022-09-13T13:07:56;21.60;99.90
39503;DHT22;26970;49.900;10.774;2022-09-13T13:10:28;21.70;99.90
39503;DHT22;26970;49.900;10.774;2022-09-13T13:12:55;21.70;99.90
39503;DHT22;26970;49.900;10.774;2022-09-13T13:17:52;21.40;99.90
39503;DHT22;26970;49.900;10.774;2022-09-13T13:23:26;21.40;99.90
39503;DHT22;26970;49.900;10.774;2022-09-13T13:29:11;21.30;99.90
39503;DHT22;26970;49.900;10.774;2022-09-13T13:31:39;21.50;99.90
39503;DHT22;26970;49.900;10.774;2022-09-13T13:39:12;21.80;99.90
39503;DHT22;26970;49.900;10.774;2022-09-13T13:55:01;22.00;99.90
39503;DHT22;26970;49.900;10.774;2022-09-13T13:57:49;22.00;99.90
39503;DHT22;26970;49.900;10.774;2022-09-13T14:00:22;22.20;99.90
39503;DHT22;26970;49.900;10.774;2022-09-13T14:08:17;22.00;99.90
39503;DHT22;26970;49.900;10.774;2022-09-13T14:11:15;22.00;99.90
39503;DHT22;26970;49.900;10.774;2022-09-13T14:19:30;22.40;99.90
39503;DHT22;26970;49.900;10.774;2022-09-13T14:22:27;22.50;99.90
39503;DHT22;26970;49.900;10.774;2022-09-13T14:24:54;22.20;99.90
39503;DHT22;26970;49.900;10.774;2022-09-13T14:27:25;22.10;99.90
39503;DHT22;26970;49.900;10.774;2022-09-13T14:29:59;22.10;99.90
39503;DHT22;26970;49.900;10.774;2022-09-13T14:32:31;22.20;99.90
39503;DHT22;26970;49.900;10.774;2022-09-13T14:35:06;22.10;99.90
39503;DHT22;26970;49.900;10.774;2022-09-13T14:37:35;22.10;99.90
39503;DHT22;26970;49.900;10.774;2022-09-13T14:40:15;22.00;99.90
39503;DHT22;26970;49.900;10.774;2022-09-13T14:42:43;22.00;99.90
39503;DHT22;26970;49.900;10.774;2022-09-13T14:45:13;21.80;99.90
39503;DHT22;26970;49.900;10.774;2022-09-13T14:50:24;21.70;99.90
39503;DHT22;26970;49.900;10.774;2022-09-13T14:52:53;21.50;99.90
39503;DHT22;26970;49.900;10.774;2022-09-13T14:55:28;21.50;99.90
39503;DHT22;26970;49.900;10.774;2022-09-13T14:58:07;21.60;99.90
39503;DHT22;26970;49.900;10.774;2022-09-13T15:00:44;21.60;99.90
39503;DHT22;26970;49.900;10.774;2022-09-13T15:03:15;21.60;99.90
39503;DHT22;26970;49.900;10.774;2022-09-13T15:05:53;21.60;99.90
39503;DHT22;26970;49.900;10.774;2022-09-13T15:10:57;21.60;99.90
39503;DHT22;26970;49.900;10.774;2022-09-13T15:13:23;21.70;99.90
39503;DHT22;26970;49.900;10.774;2022-09-13T15:15:49;21.60;99.90
39503;DHT22;26970;49.900;10.774;2022-09-13T15:23:32;21.50;99.90
39503;DHT22;26970;49.900;10.774;2022-09-13T15:26:23;21.50;99.90
39503;DHT22;26970;49.900;10.774;2022-09-13T15:28:56;21.40;99.90
39503;DHT22;26970;49.900;10.774;2022-09-13T15:31:33;21.40;99.90
39503;DHT22;26970;49.900;10.774;2022-09-13T15:36:43;21.40;99.90
39503;DHT22;26970;49.900;10.774;2022-09-13T15:39:19;21.40;99.90
39503;DHT22;26970;49.900;10.774;2022-09-13T15:42:05;21.40;99.90
39503;DHT22;26970;49.900;10.774;2022-09-13T15:44:31;21.40;99.90
39503;DHT22;26970;49.900;10.774;2022-09-13T15:47:00;21.30;99.90
39503;DHT22;26970;49.900;10.774;2022-09-13T15:49:28;21.30;99.90
39503;DHT22;26970;49.900;10.774;2022-09-13T15:51:59;21.20;99.90
39503;DHT22;26970;49.900;10.774;2022-09-13T15:54:34;21.10;99.90
39503;DHT22;26970;49.900;10.774;2022-09-13T15:57:00;21.10;99.90
39503;DHT22;26970;49.900;10.774;2022-09-13T15:59:25;21.10;99.90
39503;DHT22;26970;49.900;10.774;2022-09-13T16:01:51;21.00;99.90
39503;DHT22;26970;49.900;10.774;2022-09-13T16:04:18;21.00;99.90
39503;DHT22;26970;49.900;10.774;2022-09-13T16:06:44;21.00;99.90
39503;DHT22;26970;49.900;10.774;2022-09-13T16:09:23;21.00;99.90
39503;DHT22;26970;49.900;10.774;2022-09-13T16:11:50;20.90;99.90
39503;DHT22;26970;49.900;10.774;2022-09-13T16:14:17;20.90;99.90
39503;DHT22;26970;49.900;10.774;2022-09-13T16:16:44;20.90;99.90
39503;DHT22;26970;49.900;10.774;2022-09-13T16:19:17;20.70;99.90
39503;DHT22;26970;49.900;10.774;2022-09-13T16:21:44;20.80;99.90
39503;DHT22;26970;49.900;10.774;2022-09-13T16:24:09;20.70;99.90
39503;DHT22;26970;49.900;10.774;2022-09-13T16:26:35;20.60;99.90
39503;DHT22;26970;49.900;10.774;2022-09-13T16:29:00;20.60;99.90
39503;DHT22;26970;49.900;10.774;2022-09-13T16:31:26;20.50;99.90
39503;DHT22;26970;49.900;10.774;2022-09-13T16:33:51;20.40;99.90
39503;DHT22;26970;49.900;10.774;2022-09-13T16:36:17;20.40;99.90
39503;DHT22;26970;49.900;10.774;2022-09-13T16:38:43;20.40;99.90
39503;DHT22;26970;49.900;10.774;2022-09-13T16:41:08;20.30;99.90
39503;DHT22;26970;49.900;10.774;2022-09-13T16:43:34;20.20;99.90
39503;DHT22;26970;49.900;10.774;2022-09-13T16:46:10;20.20;99.90
39503;DHT22;26970;49.900;10.774;2022-09-13T16:48:36;20.20;99.90
39503;DHT22;26970;49.900;10.774;2022-09-13T16:51:03;20.10;99.90
39503;DHT22;26970;49.900;10.774;2022-09-13T16:53:33;20.10;99.90
39503;DHT22;26970;49.900;10.774;2022-09-13T16:56:10;20.00;99.90
39503;DHT22;26970;49.900;10.774;2022-09-13T16:58:36;20.10;99.90
39503;DHT22;26970;49.900;10.774;2022-09-13T17:01:14;20.10;99.90
39503;DHT22;26970;49.900;10.774;2022-09-13T17:03:40;19.90;99.90
39503;DHT22;26970;49.900;10.774;2022-09-13T17:06:07;19.90;99.90
39503;DHT22;26970;49.900;10.774;2022-09-13T17:08:35;19.80;99.90
39503;DHT22;26970;49.900;10.774;2022-09-13T17:11:11;19.80;99.90
39503;DHT22;26970;49.900;10.774;2022-09-13T17:13:40;19.80;99.90
39503;DHT22;26970;49.900;10.774;2022-09-13T17:16:21;19.80;99.90
39503;DHT22;26970;49.900;10.774;2022-09-13T17:18:47;19.70;99.90
39503;DHT22;26970;49.900;10.774;2022-09-13T17:21:12;19.60;99.90
39503;DHT22;26970;49.900;10.774;2022-09-13T17:23:38;19.60;99.90
39503;DHT22;26970;49.900;10.774;2022-09-13T17:26:03;19.60;99.90
39503;DHT22;26970;49.900;10.774;2022-09-13T17:28:30;19.50;99.90
39503;DHT22;26970;49.900;10.774;2022-09-13T17:30:55;19.40;99.90
39503;DHT22;26970;49.900;10.774;2022-09-13T17:33:21;19.40;99.90
39503;DHT22;26970;49.900;10.774;2022-09-13T17:35:57;19.40;99.90
39503;DHT22;26970;49.900;10.774;2022-09-13T17:38:23;19.30;99.90
39503;DHT22;26970;49.900;10.774;2022-09-13T17:40:58;19.40;99.90
39503;DHT22;26970;49.900;10.774;2022-09-13T17:43:24;19.40;99.90
39503;DHT22;26970;49.900;10.774;2022-09-13T17:45:49;19.50;99.90
39503;DHT22;26970;49.900;10.774;2022-09-13T17:48:15;19.50;99.90
39503;DHT22;26970;49.900;10.774;2022-09-13T17:50:40;19.50;99.90
39503;DHT22;26970;49.900;10.774;2022-09-13T17:53:06;19.50;99.90
39503;DHT22;26970;49.900;10.774;2022-09-13T17:55:32;19.40;99.90
39503;DHT22;26970;49.900;10.774;2022-09-13T17:57:57;19.40;99.90
39503;DHT22;26970;49.900;10.774;2022-09-13T18:00:23;19.30;99.90
39503;DHT22;26970;49.900;10.774;2022-09-13T18:02:48;19.20;99.90
39503;DHT22;26970;49.900;10.774;2022-09-13T18:05:14;19.20;99.90
39503;DHT22;26970;49.900;10.774;2022-09-13T18:07:40;19.10;99.90
39503;DHT22;26970;49.900;10.774;2022-09-13T18:10:05;19.20;99.90
39503;DHT22;26970;49.900;10.774;2022-09-13T18:12:31;19.20;99.90
39503;DHT22;26970;49.900;10.774;2022-09-13T18:14:57;19.20;99.90
39503;DHT22;26970;49.900;10.774;2022-09-13T18:17:23;19.20;99.90
39503;DHT22;26970;49.900;10.774;2022-09-13T18:19:49;19.10;99.90
39503;DHT22;26970;49.900;10.774;2022-09-13T18:22:14;19.00;99.90
39503;DHT22;26970;49.900;10.774;2022-09-13T18:24:41;19.00;99.90
39503;DHT22;26970;49.900;10.774;2022-09-13T18:27:07;18.90;99.90
39503;DHT22;26970;49.900;10.774;2022-09-13T18:29:32;18.90;99.90
39503;DHT22;26970;49.900;10.774;2022-09-13T18:31:58;18.80;99.90
39503;DHT22;26970;49.900;10.774;2022-09-13T18:34:23;18.90;99.90
39503;DHT22;26970;49.900;10.774;2022-09-13T18:36:49;18.80;99.90
39503;DHT22;26970;49.900;10.774;2022-09-13T18:39:20;18.70;99.90
39503;DHT22;26970;49.900;10.774;2022-09-13T18:41:46;18.70;99.90
39503;DHT22;26970;49.900;10.774;2022-09-13T18:44:14;18.70;99.90
39503;DHT22;26970;49.900;10.774;2022-09-13T18:46:41;18.70;99.90
39503;DHT22;26970;49.900;10.774;2022-09-13T18:49:07;18.70;99.90